sensor_id;sensor_type;location;lat;lon;timestamp;temperature;humidity
66568;DHT22;53422;49.296;6.900;2023-03-01T00:01:11;0.10;99.90
66568;DHT22;53422;49.296;6.900;2023-03-01T00:03:37;0.10;99.80
66568;DHT22;53422;49.296;6.900;2023-03-01T00:06:03;0.10;99.90
66568;DHT22;53422;49.296;6.900;2023-03-01T00:08:30;0.10;99.90
66568;DHT22;53422;49.296;6.900;2023-03-01T00:13:32;0.10;99.90
66568;DHT22;53422;49.296;6.900;2023-03-01T00:15:58;0.00;99.90
66568;DHT22;53422;49.296;6.900;2023-03-01T00:18:24;0.00;99.90
66568;DHT22;53422;49.296;6.900;2023-03-01T00:20:54;0.00;99.90
66568;DHT22;53422;49.296;6.900;2023-03-01T00:23:21;0.00;99.90
66568;DHT22;53422;49.296;6.900;2023-03-01T00:25:47;0.00;99.90
66568;DHT22;53422;49.296;6.900;2023-03-01T00:28:13;0.00;99.90
66568;DHT22;53422;49.296;6.900;2023-03-01T00:30:39;0.00;99.90
66568;DHT22;53422;49.296;6.900;2023-03-01T00:33:05;0.00;99.90
66568;DHT22;53422;49.296;6.900;2023-03-01T00:35:32;0.00;99.90
66568;DHT22;53422;49.296;6.900;2023-03-01T00:37:58;0.00;99.90
66568;DHT22;53422;49.296;6.900;2023-03-01T00:40:25;0.00;99.90
66568;DHT22;53422;49.296;6.900;2023-03-01T00:42:50;0.00;99.90
66568;DHT22;53422;49.296;6.900;2023-03-01T00:45:16;0.00;99.90
66568;DHT22;53422;49.296;6.900;2023-03-01T00:47:42;0.00;99.90
66568;DHT22;53422;49.296;6.900;2023-03-01T00:50:09;0.00;99.90
66568;DHT22;53422;49.296;6.900;2023-03-01T00:52:35;0.00;99.90
66568;DHT22;53422;49.296;6.900;2023-03-01T00:55:01;-0.10;99.90
66568;DHT22;53422;49.296;6.900;2023-03-01T00:57:26;-0.10;99.90
66568;DHT22;53422;49.296;6.900;2023-03-01T00:59:52;0.00;99.90
66568;DHT22;53422;49.296;6.900;2023-03-01T01:02:19;0.00;99.90
66568;DHT22;53422;49.296;6.900;2023-03-01T01:04:45;0.00;99.90
66568;DHT22;53422;49.296;6.900;2023-03-01T01:07:11;0.00;99.90
66568;DHT22;53422;49.296;6.900;2023-03-01T01:09:37;0.00;99.90
66568;DHT22;53422;49.296;6.900;2023-03-01T01:12:03;-0.10;99.90
66568;DHT22;53422;49.296;6.900;2023-03-01T01:14:30;-0.10;99.90
66568;DHT22;53422;49.296;6.900;2023-03-01T01:16:55;0.00;99.90
66568;DHT22;53422;49.296;6.900;2023-03-01T01:19:21;0.00;99.90
66568;DHT22;53422;49.296;6.900;2023-03-01T01:21:48;-0.10;99.90
66568;DHT22;53422;49.296;6.900;2023-03-01T01:24:14;-0.10;99.90
66568;DHT22;53422;49.296;6.900;2023-03-01T01:26:40;-0.10;99.90
66568;DHT22;53422;49.296;6.900;2023-03-01T01:29:06;-0.20;99.90
66568;DHT22;53422;49.296;6.900;2023-03-01T01:31:34;-0.20;99.90
66568;DHT22;53422;49.296;6.900;2023-03-01T01:34:01;-0.20;99.90
66568;DHT22;53422;49.296;6.900;2023-03-01T01:36:28;-0.20;99.90
66568;DHT22;53422;49.296;6.900;2023-03-01T01:38:54;-0.30;99.90
66568;DHT22;53422;49.296;6.900;2023-03-01T01:41:20;-0.20;99.90
66568;DHT22;53422;49.296;6.900;2023-03-01T01:46:37;-0.20;99.90
66568;DHT22;53422;49.296;6.900;2023-03-01T01:51:45;-0.30;99.90
66568;DHT22;53422;49.296;6.900;2023-03-01T01:54:23;-0.30;99.90
66568;DHT22;53422;49.296;6.900;2023-03-01T01:56:57;-0.30;99.90
66568;DHT22;53422;49.296;6.900;2023-03-01T01:59:25;-0.30;99.90
66568;DHT22;53422;49.296;6.900;2023-03-01T02:01:53;-0.30;99.90
66568;DHT22;53422;49.296;6.900;2023-03-01T02:04:20;-0.30;99.90
66568;DHT22;53422;49.296;6.900;2023-03-01T02:06:58;-0.30;99.90
66568;DHT22;53422;49.296;6.900;2023-03-01T02:09:26;-0.30;99.90
66568;DHT22;53422;49.296;6.900;2023-03-01T02:11:53;-0.30;99.90
66568;DHT22;53422;49.296;6.900;2023-03-01T02:14:19;-0.30;99.90
66568;DHT22;53422;49.296;6.900;2023-03-01T02:16:45;-0.30;99.90
66568;DHT22;53422;49.296;6.900;2023-03-01T02:19:23;-0.30;99.90
66568;DHT22;53422;49.296;6.900;2023-03-01T02:22:36;-0.30;99.90
66568;DHT22;53422;49.296;6.900;2023-03-01T02:27:15;-0.30;99.90
66568;DHT22;53422;49.296;6.900;2023-03-01T02:29:42;-0.40;99.90
66568;DHT22;53422;49.296;6.900;2023-03-01T02:32:11;-0.40;99.90
66568;DHT22;53422;49.296;6.900;2023-03-01T02:34:38;-0.40;99.90
66568;DHT22;53422;49.296;6.900;2023-03-01T02:37:08;-0.40;99.90
66568;DHT22;53422;49.296;6.900;2023-03-01T02:39:40;-0.40;99.90
66568;DHT22;53422;49.296;6.900;2023-03-01T02:42:11;-0.40;99.90
66568;DHT22;53422;49.296;6.900;2023-03-01T02:44:37;-0.30;99.90
66568;DHT22;53422;49.296;6.900;2023-03-01T02:47:03;-0.40;99.90
66568;DHT22;53422;49.296;6.900;2023-03-01T02:49:34;-0.40;99.90
66568;DHT22;53422;49.296;6.900;2023-03-01T02:57:09;-0.40;99.90
66568;DHT22;53422;49.296;6.900;2023-03-01T02:59:36;-0.40;99.90
66568;DHT22;53422;49.296;6.900;2023-03-01T03:02:20;-0.40;99.90
66568;DHT22;53422;49.296;6.900;2023-03-01T03:05:23;-0.40;99.90
66568;DHT22;53422;49.296;6.900;2023-03-01T03:07:48;-0.40;99.90
66568;DHT22;53422;49.296;6.900;2023-03-01T03:12:48;-0.50;99.90
66568;DHT22;53422;49.296;6.900;2023-03-01T03:15:14;-0.50;99.90
66568;DHT22;53422;49.296;6.900;2023-03-01T03:17:41;-0.50;99.90
66568;DHT22;53422;49.296;6.900;2023-03-01T03:20:08;-0.50;99.90
66568;DHT22;53422;49.296;6.900;2023-03-01T03:22:38;-0.50;99.90
66568;DHT22;53422;49.296;6.900;2023-03-01T03:25:03;-0.50;99.90
66568;DHT22;53422;49.296;6.900;2023-03-01T03:27:29;-0.50;99.90
66568;DHT22;53422;49.296;6.900;2023-03-01T03:29:57;-0.50;99.90
66568;DHT22;53422;49.296;6.900;2023-03-01T03:32:22;-0.50;99.90
66568;DHT22;53422;49.296;6.900;2023-03-01T03:34:48;-0.50;99.90
66568;DHT22;53422;49.296;6.900;2023-03-01T03:37:14;-0.50;99.90
66568;DHT22;53422;49.296;6.900;2023-03-01T03:40:00;-0.60;99.90
66568;DHT22;53422;49.296;6.900;2023-03-01T03:42:25;-0.60;99.90
66568;DHT22;53422;49.296;6.900;2023-03-01T03:44:51;-0.60;99.90
66568;DHT22;53422;49.296;6.900;2023-03-01T03:47:17;-0.60;99.90
66568;DHT22;53422;49.296;6.900;2023-03-01T03:49:42;-0.60;99.90
66568;DHT22;53422;49.296;6.900;2023-03-01T03:52:08;-0.60;99.90
66568;DHT22;53422;49.296;6.900;2023-03-01T03:54:40;-0.60;99.90
66568;DHT22;53422;49.296;6.900;2023-03-01T03:57:06;-0.60;99.90
66568;DHT22;53422;49.296;6.900;2023-03-01T03:59:32;-0.60;99.90
66568;DHT22;53422;49.296;6.900;2023-03-01T04:01:57;-0.60;99.90
66568;DHT22;53422;49.296;6.900;2023-03-01T04:04:23;-0.50;99.90
66568;DHT22;53422;49.296;6.900;2023-03-01T04:06:49;-0.60;99.90
66568;DHT22;53422;49.296;6.900;2023-03-01T04:09:14;-0.60;99.90
66568;DHT22;53422;49.296;6.900;2023-03-01T04:11:40;-0.60;99.90
66568;DHT22;53422;49.296;6.900;2023-03-01T04:14:06;-0.60;99.90
66568;DHT22;53422;49.296;6.900;2023-03-01T04:16:31;-0.50;99.90
66568;DHT22;53422;49.296;6.900;2023-03-01T04:18:57;-0.40;99.90
66568;DHT22;53422;49.296;6.900;2023-03-01T04:21:25;-0.40;99.90
66568;DHT22;53422;49.296;6.900;2023-03-01T04:23:51;-0.30;99.90
66568;DHT22;53422;49.296;6.900;2023-03-01T04:26:19;-0.30;99.90
66568;DHT22;53422;49.296;6.900;2023-03-01T04:28:45;-0.20;99.90
66568;DHT22;53422;49.296;6.900;2023-03-01T04:31:14;-0.20;99.90
66568;DHT22;53422;49.296;6.900;2023-03-01T04:33:47;-0.20;99.90
66568;DHT22;53422;49.296;6.900;2023-03-01T04:36:15;-0.30;99.90
66568;DHT22;53422;49.296;6.900;2023-03-01T04:38:42;-0.40;99.90
66568;DHT22;53422;49.296;6.900;2023-03-01T04:41:09;-0.40;99.90
66568;DHT22;53422;49.296;6.900;2023-03-01T04:43:36;-0.30;99.90
66568;DHT22;53422;49.296;6.900;2023-03-01T04:46:12;-0.30;99.90
66568;DHT22;53422;49.296;6.900;2023-03-01T04:48:39;-0.40;99.90
66568;DHT22;53422;49.296;6.900;2023-03-01T04:51:05;-0.50;99.90
66568;DHT22;53422;49.296;6.900;2023-03-01T04:53:32;-0.60;99.90
66568;DHT22;53422;49.296;6.900;2023-03-01T04:55:58;-0.50;99.90
66568;DHT22;53422;49.296;6.900;2023-03-01T04:58:26;-0.60;99.90
66568;DHT22;53422;49.296;6.900;2023-03-01T05:00:52;-0.60;99.90
66568;DHT22;53422;49.296;6.900;2023-03-01T05:03:19;-0.50;99.90
66568;DHT22;53422;49.296;6.900;2023-03-01T05:05:46;-0.50;99.90
66568;DHT22;53422;49.296;6.900;2023-03-01T05:08:13;-0.50;99.90
66568;DHT22;53422;49.296;6.900;2023-03-01T05:10:53;-0.50;99.90
66568;DHT22;53422;49.296;6.900;2023-03-01T05:13:20;-0.50;99.90
66568;DHT22;53422;49.296;6.900;2023-03-01T05:15:57;-0.70;99.90
66568;DHT22;53422;49.296;6.900;2023-03-01T05:18:25;-0.70;99.90
66568;DHT22;53422;49.296;6.900;2023-03-01T05:21:09;-0.80;99.90
66568;DHT22;53422;49.296;6.900;2023-03-01T05:23:36;-0.80;99.90
66568;DHT22;53422;49.296;6.900;2023-03-01T05:26:03;-0.80;99.90
66568;DHT22;53422;49.296;6.900;2023-03-01T05:28:30;-0.90;99.90
66568;DHT22;53422;49.296;6.900;2023-03-01T05:30:56;-0.90;99.90
66568;DHT22;53422;49.296;6.900;2023-03-01T05:33:23;-0.90;99.90
66568;DHT22;53422;49.296;6.900;2023-03-01T05:35:49;-0.80;99.90
66568;DHT22;53422;49.296;6.900;2023-03-01T05:38:16;-0.80;99.90
66568;DHT22;53422;49.296;6.900;2023-03-01T05:40:43;-0.80;99.90
66568;DHT22;53422;49.296;6.900;2023-03-01T05:43:09;-0.80;99.90
66568;DHT22;53422;49.296;6.900;2023-03-01T05:45:37;-0.80;99.90
66568;DHT22;53422;49.296;6.900;2023-03-01T05:48:03;-0.80;99.90
66568;DHT22;53422;49.296;6.900;2023-03-01T05:50:32;-0.80;99.90
66568;DHT22;53422;49.296;6.900;2023-03-01T05:53:04;-0.80;99.90
66568;DHT22;53422;49.296;6.900;2023-03-01T05:55:31;-0.80;99.90
66568;DHT22;53422;49.296;6.900;2023-03-01T05:58:01;-0.90;99.90
66568;DHT22;53422;49.296;6.900;2023-03-01T06:00:28;-0.90;99.90
66568;DHT22;53422;49.296;6.900;2023-03-01T06:02:55;-0.90;99.90
66568;DHT22;53422;49.296;6.900;2023-03-01T06:05:22;-0.90;99.90
66568;DHT22;53422;49.296;6.900;2023-03-01T06:07:47;-0.90;99.90
66568;DHT22;53422;49.296;6.900;2023-03-01T06:10:14;-0.90;99.90
66568;DHT22;53422;49.296;6.900;2023-03-01T06:12:41;-1.00;99.90
66568;DHT22;53422;49.296;6.900;2023-03-01T06:15:08;-1.00;99.90
66568;DHT22;53422;49.296;6.900;2023-03-01T06:17:40;-1.00;99.90
66568;DHT22;53422;49.296;6.900;2023-03-01T06:20:16;-0.90;99.90
66568;DHT22;53422;49.296;6.900;2023-03-01T06:22:42;-0.90;99.90
66568;DHT22;53422;49.296;6.900;2023-03-01T06:25:09;-0.90;99.90
66568;DHT22;53422;49.296;6.900;2023-03-01T06:27:35;-0.90;99.90
66568;DHT22;53422;49.296;6.900;2023-03-01T06:30:01;-1.00;99.90
66568;DHT22;53422;49.296;6.900;2023-03-01T06:32:27;-0.90;99.90
66568;DHT22;53422;49.296;6.900;2023-03-01T06:34:52;-0.90;99.90
66568;DHT22;53422;49.296;6.900;2023-03-01T06:37:18;-0.80;99.90
66568;DHT22;53422;49.296;6.900;2023-03-01T06:39:44;-0.90;99.90
66568;DHT22;53422;49.296;6.900;2023-03-01T06:42:09;-0.80;99.90
66568;DHT22;53422;49.296;6.900;2023-03-01T06:44:36;-0.90;99.90
66568;DHT22;53422;49.296;6.900;2023-03-01T06:47:02;-0.80;99.90
66568;DHT22;53422;49.296;6.900;2023-03-01T06:49:28;-0.90;99.90
66568;DHT22;53422;49.296;6.900;2023-03-01T06:51:54;-0.90;99.90
66568;DHT22;53422;49.296;6.900;2023-03-01T06:54:20;-0.90;99.90
66568;DHT22;53422;49.296;6.900;2023-03-01T06:56:48;-0.90;99.90
66568;DHT22;53422;49.296;6.900;2023-03-01T06:59:15;-0.90;99.90
66568;DHT22;53422;49.296;6.900;2023-03-01T07:01:40;-0.90;99.90
66568;DHT22;53422;49.296;6.900;2023-03-01T07:04:06;-0.90;99.90
66568;DHT22;53422;49.296;6.900;2023-03-01T07:06:31;-0.80;99.90
66568;DHT22;53422;49.296;6.900;2023-03-01T07:08:57;-0.80;99.90
66568;DHT22;53422;49.296;6.900;2023-03-01T07:11:23;-0.80;99.90
66568;DHT22;53422;49.296;6.900;2023-03-01T07:13:48;-0.70;99.90
66568;DHT22;53422;49.296;6.900;2023-03-01T07:16:14;-0.70;99.90
66568;DHT22;53422;49.296;6.900;2023-03-01T07:18:40;-0.70;99.90
66568;DHT22;53422;49.296;6.900;2023-03-01T07:21:07;-0.70;99.90
66568;DHT22;53422;49.296;6.900;2023-03-01T07:23:33;-0.60;99.90
66568;DHT22;53422;49.296;6.900;2023-03-01T07:25:59;-0.60;99.90
66568;DHT22;53422;49.296;6.900;2023-03-01T07:28:26;-0.50;99.90
66568;DHT22;53422;49.296;6.900;2023-03-01T07:30:53;-0.50;99.90
66568;DHT22;53422;49.296;6.900;2023-03-01T07:33:19;-0.50;99.90
66568;DHT22;53422;49.296;6.900;2023-03-01T07:35:44;-0.40;99.90
66568;DHT22;53422;49.296;6.900;2023-03-01T07:38:10;-0.40;99.90
66568;DHT22;53422;49.296;6.900;2023-03-01T07:40:36;-0.40;99.90
66568;DHT22;53422;49.296;6.900;2023-03-01T07:43:02;-0.30;99.90
66568;DHT22;53422;49.296;6.900;2023-03-01T07:45:28;-0.30;99.90
66568;DHT22;53422;49.296;6.900;2023-03-01T07:47:55;-0.20;99.90
66568;DHT22;53422;49.296;6.900;2023-03-01T07:50:21;-0.20;99.90
66568;DHT22;53422;49.296;6.900;2023-03-01T07:52:49;-0.20;99.90
66568;DHT22;53422;49.296;6.900;2023-03-01T07:55:16;-0.10;99.90
66568;DHT22;53422;49.296;6.900;2023-03-01T07:57:42;-0.10;99.90
66568;DHT22;53422;49.296;6.900;2023-03-01T08:00:11;-0.10;99.90
66568;DHT22;53422;49.296;6.900;2023-03-01T08:02:37;0.00;99.90
66568;DHT22;53422;49.296;6.900;2023-03-01T08:05:03;0.00;99.90
66568;DHT22;53422;49.296;6.900;2023-03-01T08:07:29;0.10;99.90
66568;DHT22;53422;49.296;6.900;2023-03-01T08:09:55;0.10;99.90
66568;DHT22;53422;49.296;6.900;2023-03-01T08:12:20;0.20;99.90
66568;DHT22;53422;49.296;6.900;2023-03-01T08:14:46;0.20;99.90
66568;DHT22;53422;49.296;6.900;2023-03-01T08:17:13;0.20;99.90
66568;DHT22;53422;49.296;6.900;2023-03-01T08:19:39;0.30;99.90
66568;DHT22;53422;49.296;6.900;2023-03-01T08:22:05;0.30;99.90
66568;DHT22;53422;49.296;6.900;2023-03-01T08:24:30;0.40;99.90
66568;DHT22;53422;49.296;6.900;2023-03-01T08:26:56;0.40;99.90
66568;DHT22;53422;49.296;6.900;2023-03-01T08:29:22;0.40;99.90
66568;DHT22;53422;49.296;6.900;2023-03-01T08:31:50;0.40;99.90
66568;DHT22;53422;49.296;6.900;2023-03-01T08:34:17;0.50;99.90
66568;DHT22;53422;49.296;6.900;2023-03-01T08:36:45;0.60;99.90
66568;DHT22;53422;49.296;6.900;2023-03-01T08:39:13;0.60;99.90
66568;DHT22;53422;49.296;6.900;2023-03-01T08:41:40;0.70;99.90
66568;DHT22;53422;49.296;6.900;2023-03-01T08:44:06;0.70;99.90
66568;DHT22;53422;49.296;6.900;2023-03-01T08:46:35;0.80;99.90
66568;DHT22;53422;49.296;6.900;2023-03-01T08:49:12;0.80;99.90
66568;DHT22;53422;49.296;6.900;2023-03-01T08:51:39;0.80;99.90
66568;DHT22;53422;49.296;6.900;2023-03-01T08:54:06;0.90;99.90
66568;DHT22;53422;49.296;6.900;2023-03-01T08:56:32;1.00;99.90
66568;DHT22;53422;49.296;6.900;2023-03-01T08:58:58;1.00;99.90
66568;DHT22;53422;49.296;6.900;2023-03-01T09:01:24;1.10;99.90
66568;DHT22;53422;49.296;6.900;2023-03-01T09:03:49;1.20;99.90
66568;DHT22;53422;49.296;6.900;2023-03-01T09:06:15;1.20;99.90
66568;DHT22;53422;49.296;6.900;2023-03-01T09:08:46;1.30;99.90
66568;DHT22;53422;49.296;6.900;2023-03-01T09:11:17;1.30;99.90
66568;DHT22;53422;49.296;6.900;2023-03-01T09:13:44;1.40;99.90
66568;DHT22;53422;49.296;6.900;2023-03-01T09:16:11;1.40;99.90
66568;DHT22;53422;49.296;6.900;2023-03-01T09:18:37;1.40;99.90
66568;DHT22;53422;49.296;6.900;2023-03-01T09:21:11;1.50;99.90
66568;DHT22;53422;49.296;6.900;2023-03-01T09:23:43;1.60;99.90
66568;DHT22;53422;49.296;6.900;2023-03-01T09:26:12;1.60;99.90
66568;DHT22;53422;49.296;6.900;2023-03-01T09:28:39;1.70;99.90
66568;DHT22;53422;49.296;6.900;2023-03-01T09:31:06;1.80;99.90
66568;DHT22;53422;49.296;6.900;2023-03-01T09:33:33;1.80;99.90
66568;DHT22;53422;49.296;6.900;2023-03-01T09:36:07;1.90;99.90
66568;DHT22;53422;49.296;6.900;2023-03-01T09:38:33;1.90;99.90
66568;DHT22;53422;49.296;6.900;2023-03-01T09:41:00;1.90;99.90
66568;DHT22;53422;49.296;6.900;2023-03-01T09:43:46;1.90;99.90
66568;DHT22;53422;49.296;6.900;2023-03-01T09:46:14;1.90;99.90
66568;DHT22;53422;49.296;6.900;2023-03-01T09:48:46;2.00;99.90
66568;DHT22;53422;49.296;6.900;2023-03-01T09:51:27;2.00;99.90
66568;DHT22;53422;49.296;6.900;2023-03-01T09:53:53;2.00;99.90
66568;DHT22;53422;49.296;6.900;2023-03-01T09:56:27;2.10;99.90
66568;DHT22;53422;49.296;6.900;2023-03-01T10:01:35;2.10;99.90
66568;DHT22;53422;49.296;6.900;2023-03-01T10:09:47;2.30;99.90
66568;DHT22;53422;49.296;6.900;2023-03-01T10:12:26;2.20;99.90
66568;DHT22;53422;49.296;6.900;2023-03-01T10:17:33;2.10;99.90
66568;DHT22;53422;49.296;6.900;2023-03-01T10:20:22;2.10;99.90
66568;DHT22;53422;49.296;6.900;2023-03-01T10:22:48;2.20;99.90
66568;DHT22;53422;49.296;6.900;2023-03-01T10:31:03;2.40;99.90
66568;DHT22;53422;49.296;6.900;2023-03-01T10:33:37;2.30;99.90
66568;DHT22;53422;49.296;6.900;2023-03-01T10:36:05;2.30;99.90
66568;DHT22;53422;49.296;6.900;2023-03-01T10:38:48;2.30;99.90
66568;DHT22;53422;49.296;6.900;2023-03-01T10:41:14;2.30;99.90
66568;DHT22;53422;49.296;6.900;2023-03-01T10:43:43;2.40;99.90
66568;DHT22;53422;49.296;6.900;2023-03-01T10:46:33;2.30;99.90
66568;DHT22;53422;49.296;6.900;2023-03-01T10:49:13;2.40;99.90
66568;DHT22;53422;49.296;6.900;2023-03-01T10:51:41;2.30;99.90
66568;DHT22;53422;49.296;6.900;2023-03-01T10:57:02;2.40;99.90
66568;DHT22;53422;49.296;6.900;2023-03-01T11:04:34;2.60;99.90
66568;DHT22;53422;49.296;6.900;2023-03-01T11:07:02;2.60;99.90
66568;DHT22;53422;49.296;6.900;2023-03-01T11:09:31;2.60;99.90
66568;DHT22;53422;49.296;6.900;2023-03-01T11:12:03;2.50;99.90
66568;DHT22;53422;49.296;6.900;2023-03-01T11:14:35;2.60;99.90
66568;DHT22;53422;49.296;6.900;2023-03-01T11:19:38;2.60;99.90
66568;DHT22;53422;49.296;6.900;2023-03-01T11:22:13;2.60;99.90
66568;DHT22;53422;49.296;6.900;2023-03-01T11:24:46;2.70;99.90
66568;DHT22;53422;49.296;6.900;2023-03-01T11:27:18;2.70;99.90
66568;DHT22;53422;49.296;6.900;2023-03-01T11:32:24;2.70;99.90
66568;DHT22;53422;49.296;6.900;2023-03-01T11:34:58;2.80;99.90
66568;DHT22;53422;49.296;6.900;2023-03-01T11:43:19;2.90;99.90
66568;DHT22;53422;49.296;6.900;2023-03-01T11:45:56;2.90;99.90
66568;DHT22;53422;49.296;6.900;2023-03-01T11:48:43;3.00;99.10
66568;DHT22;53422;49.296;6.900;2023-03-01T11:51:23;2.90;99.90
66568;DHT22;53422;49.296;6.900;2023-03-01T11:54:04;2.90;99.90
66568;DHT22;53422;49.296;6.900;2023-03-01T12:01:57;3.00;99.80
66568;DHT22;53422;49.296;6.900;2023-03-01T12:04:49;3.00;99.70
66568;DHT22;53422;49.296;6.900;2023-03-01T12:18:50;3.10;99.90
66568;DHT22;53422;49.296;6.900;2023-03-01T12:46:39;3.60;94.70
66568;DHT22;53422;49.296;6.900;2023-03-01T12:49:14;3.50;94.40
66568;DHT22;53422;49.296;6.900;2023-03-01T12:51:47;3.60;94.90
66568;DHT22;53422;49.296;6.900;2023-03-01T12:54:16;3.70;93.30
66568;DHT22;53422;49.296;6.900;2023-03-01T12:56:45;3.70;93.20
66568;DHT22;53422;49.296;6.900;2023-03-01T12:59:23;3.70;94.40
66568;DHT22;53422;49.296;6.900;2023-03-01T13:10:21;3.80;97.00
66568;DHT22;53422;49.296;6.900;2023-03-01T13:12:53;4.00;93.60
66568;DHT22;53422;49.296;6.900;2023-03-01T13:17:56;4.20;91.40
66568;DHT22;53422;49.296;6.900;2023-03-01T13:20:45;4.20;93.30
66568;DHT22;53422;49.296;6.900;2023-03-01T13:26:10;4.10;93.60
66568;DHT22;53422;49.296;6.900;2023-03-01T13:33:55;4.30;92.20
66568;DHT22;53422;49.296;6.900;2023-03-01T13:44:28;4.40;90.80
66568;DHT22;53422;49.296;6.900;2023-03-01T13:46:58;4.50;91.40
66568;DHT22;53422;49.296;6.900;2023-03-01T13:49:36;4.50;91.80
66568;DHT22;53422;49.296;6.900;2023-03-01T13:52:27;4.50;89.20
66568;DHT22;53422;49.296;6.900;2023-03-01T13:54:53;4.50;89.40
66568;DHT22;53422;49.296;6.900;2023-03-01T13:57:24;4.50;90.70
66568;DHT22;53422;49.296;6.900;2023-03-01T13:59:51;4.60;88.10
66568;DHT22;53422;49.296;6.900;2023-03-01T14:02:17;4.60;89.90
66568;DHT22;53422;49.296;6.900;2023-03-01T14:04:43;4.60;87.10
66568;DHT22;53422;49.296;6.900;2023-03-01T14:07:16;4.70;86.50
66568;DHT22;53422;49.296;6.900;2023-03-01T14:09:45;4.70;86.00
66568;DHT22;53422;49.296;6.900;2023-03-01T14:19:56;4.80;83.50
66568;DHT22;53422;49.296;6.900;2023-03-01T14:22:49;4.90;83.60
66568;DHT22;53422;49.296;6.900;2023-03-01T14:25:29;4.80;86.50
66568;DHT22;53422;49.296;6.900;2023-03-01T14:28:28;4.90;82.90
66568;DHT22;53422;49.296;6.900;2023-03-01T14:30:57;4.90;81.90
66568;DHT22;53422;49.296;6.900;2023-03-01T14:33:40;4.90;83.40
66568;DHT22;53422;49.296;6.900;2023-03-01T14:36:10;4.90;80.10
66568;DHT22;53422;49.296;6.900;2023-03-01T14:41:12;4.90;80.90
66568;DHT22;53422;49.296;6.900;2023-03-01T14:44:35;5.00;81.90
66568;DHT22;53422;49.296;6.900;2023-03-01T14:46:38;4.90;80.60
66568;DHT22;53422;49.296;6.900;2023-03-01T14:49:14;5.00;80.90
66568;DHT22;53422;49.296;6.900;2023-03-01T14:51:43;4.90;81.70
66568;DHT22;53422;49.296;6.900;2023-03-01T14:54:35;5.00;81.10
66568;DHT22;53422;49.296;6.900;2023-03-01T14:57:01;5.00;79.80
66568;DHT22;53422;49.296;6.900;2023-03-01T14:59:28;5.00;80.10
66568;DHT22;53422;49.296;6.900;2023-03-01T15:01:56;5.00;78.00
66568;DHT22;53422;49.296;6.900;2023-03-01T15:04:23;5.00;78.60
66568;DHT22;53422;49.296;6.900;2023-03-01T15:06:54;5.10;79.20
66568;DHT22;53422;49.296;6.900;2023-03-01T15:09:21;5.00;80.90
66568;DHT22;53422;49.296;6.900;2023-03-01T15:11:48;5.00;79.50
66568;DHT22;53422;49.296;6.900;2023-03-01T15:14:40;5.00;78.80
66568;DHT22;53422;49.296;6.900;2023-03-01T15:19:49;5.00;78.00
66568;DHT22;53422;49.296;6.900;2023-03-01T15:22:16;5.10;77.60
66568;DHT22;53422;49.296;6.900;2023-03-01T15:24:47;5.00;82.00
66568;DHT22;53422;49.296;6.900;2023-03-01T15:27:16;5.10;77.60
66568;DHT22;53422;49.296;6.900;2023-03-01T15:29:49;5.10;79.10
66568;DHT22;53422;49.296;6.900;2023-03-01T15:32:35;5.00;79.80
66568;DHT22;53422;49.296;6.900;2023-03-01T15:38:00;5.00;78.80
66568;DHT22;53422;49.296;6.900;2023-03-01T15:40:28;5.00;77.50
66568;DHT22;53422;49.296;6.900;2023-03-01T15:43:02;5.00;81.10
66568;DHT22;53422;49.296;6.900;2023-03-01T15:45:30;5.00;78.30
66568;DHT22;53422;49.296;6.900;2023-03-01T15:48:05;5.00;78.80
66568;DHT22;53422;49.296;6.900;2023-03-01T15:50:39;4.90;78.30
66568;DHT22;53422;49.296;6.900;2023-03-01T15:53:09;5.00;79.60
66568;DHT22;53422;49.296;6.900;2023-03-01T15:55:37;5.00;77.90
66568;DHT22;53422;49.296;6.900;2023-03-01T15:58:05;5.00;78.40
66568;DHT22;53422;49.296;6.900;2023-03-01T16:00:32;4.90;78.00
66568;DHT22;53422;49.296;6.900;2023-03-01T16:02:58;4.80;78.90
66568;DHT22;53422;49.296;6.900;2023-03-01T16:05:30;4.80;79.40
66568;DHT22;53422;49.296;6.900;2023-03-01T16:07:56;4.80;77.40
66568;DHT22;53422;49.296;6.900;2023-03-01T16:10:22;4.80;76.90
66568;DHT22;53422;49.296;6.900;2023-03-01T16:12:49;4.90;75.00
66568;DHT22;53422;49.296;6.900;2023-03-01T16:15:26;4.90;75.60
66568;DHT22;53422;49.296;6.900;2023-03-01T16:17:52;4.90;73.10
66568;DHT22;53422;49.296;6.900;2023-03-01T16:20:18;4.80;76.00
66568;DHT22;53422;49.296;6.900;2023-03-01T16:22:45;4.80;75.50
66568;DHT22;53422;49.296;6.900;2023-03-01T16:25:12;4.80;74.50
66568;DHT22;53422;49.296;6.900;2023-03-01T16:27:38;4.80;74.90
66568;DHT22;53422;49.296;6.900;2023-03-01T16:30:05;4.70;76.20
66568;DHT22;53422;49.296;6.900;2023-03-01T16:32:31;4.70;75.30
66568;DHT22;53422;49.296;6.900;2023-03-01T16:34:57;4.60;76.00
66568;DHT22;53422;49.296;6.900;2023-03-01T16:37:23;4.60;75.80
66568;DHT22;53422;49.296;6.900;2023-03-01T16:39:48;4.60;80.00
66568;DHT22;53422;49.296;6.900;2023-03-01T16:42:17;4.50;76.90
66568;DHT22;53422;49.296;6.900;2023-03-01T16:44:43;4.50;77.70
66568;DHT22;53422;49.296;6.900;2023-03-01T16:47:08;4.50;78.20
66568;DHT22;53422;49.296;6.900;2023-03-01T16:49:34;4.50;76.40
66568;DHT22;53422;49.296;6.900;2023-03-01T16:52:00;4.60;74.80
66568;DHT22;53422;49.296;6.900;2023-03-01T16:54:25;4.40;76.80
66568;DHT22;53422;49.296;6.900;2023-03-01T16:56:51;4.40;76.50
66568;DHT22;53422;49.296;6.900;2023-03-01T16:59:17;4.40;78.20
66568;DHT22;53422;49.296;6.900;2023-03-01T17:01:44;4.30;78.40
66568;DHT22;53422;49.296;6.900;2023-03-01T17:04:11;4.30;78.50
66568;DHT22;53422;49.296;6.900;2023-03-01T17:06:37;4.30;79.00
66568;DHT22;53422;49.296;6.900;2023-03-01T17:09:03;4.30;79.10
66568;DHT22;53422;49.296;6.900;2023-03-01T17:11:29;4.20;78.40
66568;DHT22;53422;49.296;6.900;2023-03-01T17:13:54;4.20;79.60
66568;DHT22;53422;49.296;6.900;2023-03-01T17:16:20;4.20;75.60
66568;DHT22;53422;49.296;6.900;2023-03-01T17:18:47;4.20;76.00
66568;DHT22;53422;49.296;6.900;2023-03-01T17:21:13;4.30;74.60
66568;DHT22;53422;49.296;6.900;2023-03-01T17:23:41;4.20;75.10
66568;DHT22;53422;49.296;6.900;2023-03-01T17:26:07;4.20;75.70
66568;DHT22;53422;49.296;6.900;2023-03-01T17:28:34;4.10;75.10
66568;DHT22;53422;49.296;6.900;2023-03-01T17:31:02;4.10;79.10
66568;DHT22;53422;49.296;6.900;2023-03-01T17:33:28;4.00;78.40
66568;DHT22;53422;49.296;6.900;2023-03-01T17:35:55;4.10;75.10
66568;DHT22;53422;49.296;6.900;2023-03-01T17:38:21;4.00;75.90
66568;DHT22;53422;49.296;6.900;2023-03-01T17:40:47;4.00;76.60
66568;DHT22;53422;49.296;6.900;2023-03-01T17:43:14;3.90;77.00
66568;DHT22;53422;49.296;6.900;2023-03-01T17:45:40;3.90;81.00
66568;DHT22;53422;49.296;6.900;2023-03-01T17:48:09;3.90;78.60
66568;DHT22;53422;49.296;6.900;2023-03-01T17:50:37;3.80;82.50
66568;DHT22;53422;49.296;6.900;2023-03-01T17:53:03;3.70;80.20
66568;DHT22;53422;49.296;6.900;2023-03-01T17:55:34;3.70;81.30
66568;DHT22;53422;49.296;6.900;2023-03-01T17:58:00;3.70;80.10
66568;DHT22;53422;49.296;6.900;2023-03-01T18:00:26;3.70;80.80
66568;DHT22;53422;49.296;6.900;2023-03-01T18:02:52;3.60;82.40
66568;DHT22;53422;49.296;6.900;2023-03-01T18:05:18;3.50;84.60
66568;DHT22;53422;49.296;6.900;2023-03-01T18:07:44;3.50;85.60
66568;DHT22;53422;49.296;6.900;2023-03-01T18:10:10;3.50;87.60